Gunnison, CO

3:14 PM MDT on July 03, 2015 (GMT -0600)
West Ruby Ave Weather | | Change Station
CLOSE
Current Station
Personal Weather Station
Location: Gunnison, CO
Elevation: 7713 ft
Nearby Weather Stations

Elev 7713 ft 38.55 °N, 106.93 °W | Updated 4 seconds ago

Clear
Clear
68.8 °F
Feels Like 68.8 °F
N
3.0
Wind Variable Wind from NNE
Gusts 3.0 mph

Today
High -- | Low -- °F
--% Chance of Precip.
Yesterday
High -- | Low -- °F
Precip. -- in
5:48 AM 8:35 PM
Waning Gibbous, 96% visible
Pressure 30.30 in
Visibility 10.0 miles
Clouds Clear
Dew Point 55 °F
Humidity 62%
Rainfall 0.00 in
Snow Depth Not available.
UV 0.0 out of 12
Pollen 5.30 out of 12
Air Quality Not available.
Flu Activity Not available.
METAR KGUC 032055Z 33010KT 10SM VCTS CLR 19/12 A3030 RMK AO1 LTG DSNT ALQDS TSB1956E11B30E45B54 P0006 60006 57020

More Conditions Fewer Conditions

Pressure 30.30 in
Visibility 10.0 miles
Clouds Clear
Dew Point 55 °F
Humidity 62%
Rainfall 0.00 in
Snow Depth Not available.
UV 0.0 out of 12
Pollen 5.30 out of 12
Air Quality Not available.
Flu Activity Not available.
METAR KGUC 032055Z 33010KT 10SM VCTS CLR 19/12 A3030 RMK AO1 LTG DSNT ALQDS TSB1956E11B30E45B54 P0006 60006 57020

More Conditions Fewer Conditions

Nowcast | as of 3:02 PM MDT on July 3, 2015

At 259 PM MDT...Doppler radar indicated a line of showers and thunderstorms...along the Uncompahgre Plateau extending from 14 miles south of Grand Junction to Ridgway...moving southeast at 10 mph. These storms are producing locally heavy rain showers that may be producing surges of water down drainages off the east side of the Uncompahgre Plateau. Locations impacted include... Montrose...Delta...Olathe...Ridgway...Lake City...loghill Village and Colona.

×

10-Day Weather Forecast

×

Almanac

Astronomy

Jul. 03, 2015 Rise Set
Actual Time
Civil Twilight
Nautical Twilight
Astronomical Twilight
Moon
Length of Visible Light
Length of Day
Tomorrow will be .
, % of the Moon is Illuminated

Today's Extremes

State Highs State Lows

Community

WunderPhotos

Upload Photos

1,834,777 photos uploaded!

WunderBlogs® & News

Nearby

Air Quality

  Air Quality AQ Index Pollutant
Not available.

Snow Depth

Station Depth Elevation

Earthquake Activity

City Distance Mag. Time & Date
Minimum magnitude displayed is 2.5.

Coastal Water Temperatures

Place Temperature

Stations

Nearby Weather Stations

Station Location Temp. Windchill Dew Point Humidity Wind Precip. Elev Updated Type